sensor_id;sensor_type;location;lat;lon;timestamp;P1;durP1;ratioP1;P2;durP2;ratioP2
26478;SDS011;14163;-26.142;27.992;2023-12-28T00:00:58;5.63;;;5.13;;
26478;SDS011;14163;-26.142;27.992;2023-12-28T00:03:27;6.40;;;5.53;;
26478;SDS011;14163;-26.142;27.992;2023-12-28T00:05:57;7.73;;;5.20;;
26478;SDS011;14163;-26.142;27.992;2023-12-28T00:08:27;11.57;;;5.40;;
26478;SDS011;14163;-26.142;27.992;2023-12-28T00:10:58;7.80;;;5.40;;
26478;SDS011;14163;-26.142;27.992;2023-12-28T00:13:28;5.93;;;5.30;;
26478;SDS011;14163;-26.142;27.992;2023-12-28T00:16:00;8.20;;;5.30;;
26478;SDS011;14163;-26.142;27.992;2023-12-28T00:18:30;8.40;;;5.90;;
26478;SDS011;14163;-26.142;27.992;2023-12-28T00:20:59;7.40;;;5.83;;
26478;SDS011;14163;-26.142;27.992;2023-12-28T00:23:29;6.10;;;5.50;;
26478;SDS011;14163;-26.142;27.992;2023-12-28T00:25:59;8.83;;;5.27;;
26478;SDS011;14163;-26.142;27.992;2023-12-28T00:28:28;10.00;;;5.80;;
26478;SDS011;14163;-26.142;27.992;2023-12-28T00:31:00;9.37;;;5.57;;
26478;SDS011;14163;-26.142;27.992;2023-12-28T00:33:29;5.13;;;4.63;;
26478;SDS011;14163;-26.142;27.992;2023-12-28T00:35:58;5.70;;;5.20;;
26478;SDS011;14163;-26.142;27.992;2023-12-28T00:38:28;8.60;;;5.87;;
26478;SDS011;14163;-26.142;27.992;2023-12-28T00:40:57;6.40;;;5.20;;
26478;SDS011;14163;-26.142;27.992;2023-12-28T00:43:26;5.70;;;5.03;;
26478;SDS011;14163;-26.142;27.992;2023-12-28T00:45:56;8.77;;;5.23;;
26478;SDS011;14163;-26.142;27.992;2023-12-28T00:48:27;5.43;;;4.93;;
26478;SDS011;14163;-26.142;27.992;2023-12-28T00:50:56;5.80;;;5.00;;
26478;SDS011;14163;-26.142;27.992;2023-12-28T00:53:26;7.03;;;4.60;;
26478;SDS011;14163;-26.142;27.992;2023-12-28T00:55:55;5.27;;;4.77;;
26478;SDS011;14163;-26.142;27.992;2023-12-28T00:58:24;5.17;;;4.67;;
26478;SDS011;14163;-26.142;27.992;2023-12-28T01:00:53;9.10;;;4.53;;
26478;SDS011;14163;-26.142;27.992;2023-12-28T01:03:23;5.70;;;4.90;;
26478;SDS011;14163;-26.142;27.992;2023-12-28T01:05:54;6.70;;;4.60;;
26478;SDS011;14163;-26.142;27.992;2023-12-28T01:08:23;4.67;;;4.27;;
26478;SDS011;14163;-26.142;27.992;2023-12-28T01:10:52;8.23;;;4.43;;
26478;SDS011;14163;-26.142;27.992;2023-12-28T01:13:21;5.23;;;4.40;;
26478;SDS011;14163;-26.142;27.992;2023-12-28T01:15:50;9.77;;;5.00;;
26478;SDS011;14163;-26.142;27.992;2023-12-28T01:18:19;5.73;;;4.90;;
26478;SDS011;14163;-26.142;27.992;2023-12-28T01:20:48;5.13;;;4.53;;
26478;SDS011;14163;-26.142;27.992;2023-12-28T01:23:19;6.23;;;4.97;;
26478;SDS011;14163;-26.142;27.992;2023-12-28T01:25:48;6.00;;;4.77;;
26478;SDS011;14163;-26.142;27.992;2023-12-28T01:28:17;6.40;;;4.50;;
26478;SDS011;14163;-26.142;27.992;2023-12-28T01:30:46;5.77;;;4.90;;
26478;SDS011;14163;-26.142;27.992;2023-12-28T01:33:15;4.90;;;4.10;;
26478;SDS011;14163;-26.142;27.992;2023-12-28T01:35:44;6.97;;;4.60;;
26478;SDS011;14163;-26.142;27.992;2023-12-28T01:38:13;6.30;;;5.07;;
26478;SDS011;14163;-26.142;27.992;2023-12-28T01:40:45;5.27;;;4.67;;
26478;SDS011;14163;-26.142;27.992;2023-12-28T01:43:15;7.27;;;5.00;;
26478;SDS011;14163;-26.142;27.992;2023-12-28T01:45:44;5.80;;;5.00;;
26478;SDS011;14163;-26.142;27.992;2023-12-28T01:48:13;8.60;;;5.27;;
26478;SDS011;14163;-26.142;27.992;2023-12-28T01:50:43;8.73;;;5.70;;
26478;SDS011;14163;-26.142;27.992;2023-12-28T01:53:12;5.73;;;5.23;;
26478;SDS011;14163;-26.142;27.992;2023-12-28T01:55:42;7.70;;;6.27;;
26478;SDS011;14163;-26.142;27.992;2023-12-28T01:58:14;7.70;;;5.77;;
26478;SDS011;14163;-26.142;27.992;2023-12-28T02:00:44;6.50;;;5.90;;
26478;SDS011;14163;-26.142;27.992;2023-12-28T02:03:13;7.30;;;6.17;;
26478;SDS011;14163;-26.142;27.992;2023-12-28T02:05:42;7.90;;;6.50;;
26478;SDS011;14163;-26.142;27.992;2023-12-28T02:08:12;9.37;;;6.50;;
26478;SDS011;14163;-26.142;27.992;2023-12-28T02:10:43;6.97;;;6.27;;
26478;SDS011;14163;-26.142;27.992;2023-12-28T02:13:15;8.63;;;6.27;;
26478;SDS011;14163;-26.142;27.992;2023-12-28T02:15:45;7.17;;;6.57;;
26478;SDS011;14163;-26.142;27.992;2023-12-28T02:18:20;7.83;;;6.77;;
26478;SDS011;14163;-26.142;27.992;2023-12-28T02:20:53;8.80;;;7.90;;
26478;SDS011;14163;-26.142;27.992;2023-12-28T02:23:24;7.90;;;7.20;;
26478;SDS011;14163;-26.142;27.992;2023-12-28T02:25:56;8.43;;;7.37;;
26478;SDS011;14163;-26.142;27.992;2023-12-28T02:28:26;7.63;;;7.03;;
26478;SDS011;14163;-26.142;27.992;2023-12-28T02:30:55;8.57;;;7.67;;
26478;SDS011;14163;-26.142;27.992;2023-12-28T02:33:28;8.43;;;7.53;;
26478;SDS011;14163;-26.142;27.992;2023-12-28T02:36:04;9.67;;;7.80;;
26478;SDS011;14163;-26.142;27.992;2023-12-28T02:38:37;8.50;;;7.60;;
26478;SDS011;14163;-26.142;27.992;2023-12-28T02:41:11;9.23;;;8.33;;
26478;SDS011;14163;-26.142;27.992;2023-12-28T02:43:41;9.40;;;8.40;;
26478;SDS011;14163;-26.142;27.992;2023-12-28T02:46:11;9.70;;;7.77;;
26478;SDS011;14163;-26.142;27.992;2023-12-28T02:48:41;8.20;;;7.40;;
26478;SDS011;14163;-26.142;27.992;2023-12-28T02:51:11;8.87;;;8.03;;
26478;SDS011;14163;-26.142;27.992;2023-12-28T02:53:42;10.70;;;8.80;;
26478;SDS011;14163;-26.142;27.992;2023-12-28T02:56:14;9.80;;;8.90;;
26478;SDS011;14163;-26.142;27.992;2023-12-28T02:58:43;12.83;;;10.47;;
26478;SDS011;14163;-26.142;27.992;2023-12-28T03:01:13;12.20;;;9.20;;
26478;SDS011;14163;-26.142;27.992;2023-12-28T03:03:42;14.53;;;11.60;;
26478;SDS011;14163;-26.142;27.992;2023-12-28T03:06:12;11.93;;;10.63;;
26478;SDS011;14163;-26.142;27.992;2023-12-28T03:08:42;11.80;;;10.60;;
26478;SDS011;14163;-26.142;27.992;2023-12-28T03:11:14;19.67;;;14.23;;
26478;SDS011;14163;-26.142;27.992;2023-12-28T03:13:46;17.20;;;13.77;;
26478;SDS011;14163;-26.142;27.992;2023-12-28T03:16:15;15.53;;;13.70;;
26478;SDS011;14163;-26.142;27.992;2023-12-28T03:18:45;14.17;;;11.73;;
26478;SDS011;14163;-26.142;27.992;2023-12-28T03:21:14;19.33;;;13.00;;
26478;SDS011;14163;-26.142;27.992;2023-12-28T03:23:43;15.77;;;13.00;;
26478;SDS011;14163;-26.142;27.992;2023-12-28T03:26:14;16.00;;;12.70;;
26478;SDS011;14163;-26.142;27.992;2023-12-28T03:28:43;16.30;;;14.30;;
26478;SDS011;14163;-26.142;27.992;2023-12-28T03:31:12;15.30;;;13.20;;
26478;SDS011;14163;-26.142;27.992;2023-12-28T03:33:41;15.97;;;13.87;;
26478;SDS011;14163;-26.142;27.992;2023-12-28T03:36:17;17.73;;;13.83;;
26478;SDS011;14163;-26.142;27.992;2023-12-28T03:38:46;14.83;;;13.30;;
26478;SDS011;14163;-26.142;27.992;2023-12-28T03:41:20;17.83;;;14.13;;
26478;SDS011;14163;-26.142;27.992;2023-12-28T03:43:49;16.70;;;12.80;;
26478;SDS011;14163;-26.142;27.992;2023-12-28T03:46:18;14.90;;;12.27;;
26478;SDS011;14163;-26.142;27.992;2023-12-28T03:48:47;15.70;;;14.00;;
26478;SDS011;14163;-26.142;27.992;2023-12-28T03:51:17;15.10;;;13.50;;
26478;SDS011;14163;-26.142;27.992;2023-12-28T03:53:47;17.17;;;13.23;;
26478;SDS011;14163;-26.142;27.992;2023-12-28T03:56:21;16.63;;;14.10;;
26478;SDS011;14163;-26.142;27.992;2023-12-28T03:58:51;17.37;;;12.73;;
26478;SDS011;14163;-26.142;27.992;2023-12-28T04:01:21;16.43;;;12.83;;
26478;SDS011;14163;-26.142;27.992;2023-12-28T04:03:50;15.80;;;13.20;;
26478;SDS011;14163;-26.142;27.992;2023-12-28T04:06:19;17.00;;;13.20;;
26478;SDS011;14163;-26.142;27.992;2023-12-28T04:08:49;16.50;;;13.33;;
26478;SDS011;14163;-26.142;27.992;2023-12-28T04:11:18;15.03;;;12.70;;
26478;SDS011;14163;-26.142;27.992;2023-12-28T04:13:49;16.83;;;13.17;;
26478;SDS011;14163;-26.142;27.992;2023-12-28T04:16:18;15.13;;;12.97;;
26478;SDS011;14163;-26.142;27.992;2023-12-28T04:18:47;14.27;;;11.67;;
26478;SDS011;14163;-26.142;27.992;2023-12-28T04:21:17;17.30;;;12.70;;
26478;SDS011;14163;-26.142;27.992;2023-12-28T04:23:46;15.70;;;12.40;;
26478;SDS011;14163;-26.142;27.992;2023-12-28T04:26:17;13.23;;;11.60;;
26478;SDS011;14163;-26.142;27.992;2023-12-28T04:28:49;14.00;;;11.60;;
26478;SDS011;14163;-26.142;27.992;2023-12-28T04:31:19;15.70;;;12.37;;
26478;SDS011;14163;-26.142;27.992;2023-12-28T04:33:48;13.17;;;11.53;;
26478;SDS011;14163;-26.142;27.992;2023-12-28T04:36:17;13.07;;;10.80;;
26478;SDS011;14163;-26.142;27.992;2023-12-28T04:38:46;14.57;;;11.10;;
26478;SDS011;14163;-26.142;27.992;2023-12-28T04:41:15;12.50;;;10.40;;
26478;SDS011;14163;-26.142;27.992;2023-12-28T04:43:44;12.83;;;11.10;;
26478;SDS011;14163;-26.142;27.992;2023-12-28T04:46:15;11.37;;;10.20;;
26478;SDS011;14163;-26.142;27.992;2023-12-28T04:48:44;13.93;;;10.50;;
26478;SDS011;14163;-26.142;27.992;2023-12-28T04:51:14;11.10;;;10.00;;
26478;SDS011;14163;-26.142;27.992;2023-12-28T04:53:43;15.00;;;9.20;;
26478;SDS011;14163;-26.142;27.992;2023-12-28T04:56:12;11.23;;;10.13;;
26478;SDS011;14163;-26.142;27.992;2023-12-28T04:58:46;9.53;;;8.37;;
26478;SDS011;14163;-26.142;27.992;2023-12-28T05:01:18;9.97;;;8.97;;
26478;SDS011;14163;-26.142;27.992;2023-12-28T05:03:48;9.67;;;8.67;;
26478;SDS011;14163;-26.142;27.992;2023-12-28T05:06:17;10.80;;;8.97;;
26478;SDS011;14163;-26.142;27.992;2023-12-28T05:08:47;10.73;;;8.47;;
26478;SDS011;14163;-26.142;27.992;2023-12-28T05:11:16;10.80;;;8.60;;
26478;SDS011;14163;-26.142;27.992;2023-12-28T05:13:45;10.27;;;8.00;;
26478;SDS011;14163;-26.142;27.992;2023-12-28T05:16:15;8.20;;;7.40;;
26478;SDS011;14163;-26.142;27.992;2023-12-28T05:18:48;10.30;;;7.30;;
26478;SDS011;14163;-26.142;27.992;2023-12-28T05:21:17;7.10;;;6.40;;
26478;SDS011;14163;-26.142;27.992;2023-12-28T05:23:47;7.20;;;6.60;;
26478;SDS011;14163;-26.142;27.992;2023-12-28T05:26:16;8.10;;;7.30;;
26478;SDS011;14163;-26.142;27.992;2023-12-28T05:28:46;6.73;;;6.13;;
26478;SDS011;14163;-26.142;27.992;2023-12-28T05:31:15;7.03;;;6.33;;
26478;SDS011;14163;-26.142;27.992;2023-12-28T05:33:46;9.00;;;7.07;;
26478;SDS011;14163;-26.142;27.992;2023-12-28T05:36:15;7.47;;;6.70;;
26478;SDS011;14163;-26.142;27.992;2023-12-28T05:38:44;6.67;;;6.07;;
26478;SDS011;14163;-26.142;27.992;2023-12-28T05:41:13;6.27;;;5.67;;
26478;SDS011;14163;-26.142;27.992;2023-12-28T05:43:42;5.67;;;5.17;;
26478;SDS011;14163;-26.142;27.992;2023-12-28T05:46:14;5.70;;;5.20;;
26478;SDS011;14163;-26.142;27.992;2023-12-28T05:48:46;5.97;;;5.47;;
26478;SDS011;14163;-26.142;27.992;2023-12-28T05:51:15;5.80;;;5.30;;
26478;SDS011;14163;-26.142;27.992;2023-12-28T05:53:44;6.00;;;5.50;;
26478;SDS011;14163;-26.142;27.992;2023-12-28T05:56:14;5.40;;;5.00;;
26478;SDS011;14163;-26.142;27.992;2023-12-28T05:58:43;7.90;;;5.40;;
26478;SDS011;14163;-26.142;27.992;2023-12-28T06:01:12;7.93;;;5.83;;
26478;SDS011;14163;-26.142;27.992;2023-12-28T06:03:41;6.30;;;5.70;;
26478;SDS011;14163;-26.142;27.992;2023-12-28T06:06:12;4.80;;;4.50;;
26478;SDS011;14163;-26.142;27.992;2023-12-28T06:08:41;5.83;;;5.33;;
26478;SDS011;14163;-26.142;27.992;2023-12-28T06:11:10;5.00;;;4.50;;
26478;SDS011;14163;-26.142;27.992;2023-12-28T06:13:39;5.63;;;5.03;;
26478;SDS011;14163;-26.142;27.992;2023-12-28T06:16:09;5.97;;;5.37;;
26478;SDS011;14163;-26.142;27.992;2023-12-28T06:18:38;5.73;;;4.80;;
26478;SDS011;14163;-26.142;27.992;2023-12-28T06:21:08;5.57;;;5.07;;
26478;SDS011;14163;-26.142;27.992;2023-12-28T06:23:39;4.67;;;4.27;;
26478;SDS011;14163;-26.142;27.992;2023-12-28T06:26:08;4.70;;;4.33;;
26478;SDS011;14163;-26.142;27.992;2023-12-28T06:28:37;4.90;;;4.50;;
26478;SDS011;14163;-26.142;27.992;2023-12-28T06:31:07;4.43;;;4.03;;
26478;SDS011;14163;-26.142;27.992;2023-12-28T06:33:36;5.23;;;4.83;;
26478;SDS011;14163;-26.142;27.992;2023-12-28T06:36:06;4.50;;;4.10;;
26478;SDS011;14163;-26.142;27.992;2023-12-28T06:38:39;4.83;;;4.43;;
26478;SDS011;14163;-26.142;27.992;2023-12-28T06:41:11;4.93;;;4.53;;
26478;SDS011;14163;-26.142;27.992;2023-12-28T06:43:41;4.20;;;3.90;;
26478;SDS011;14163;-26.142;27.992;2023-12-28T06:46:11;4.70;;;4.13;;
26478;SDS011;14163;-26.142;27.992;2023-12-28T06:48:40;4.63;;;4.23;;
26478;SDS011;14163;-26.142;27.992;2023-12-28T06:51:10;4.70;;;4.30;;
26478;SDS011;14163;-26.142;27.992;2023-12-28T06:53:48;3.50;;;3.30;;
26478;SDS011;14163;-26.142;27.992;2023-12-28T06:56:17;3.57;;;3.37;;
26478;SDS011;14163;-26.142;27.992;2023-12-28T06:58:47;3.53;;;3.23;;
26478;SDS011;14163;-26.142;27.992;2023-12-28T07:01:16;3.70;;;3.40;;
26478;SDS011;14163;-26.142;27.992;2023-12-28T07:03:46;4.20;;;3.77;;
26478;SDS011;14163;-26.142;27.992;2023-12-28T07:06:15;3.07;;;2.87;;
26478;SDS011;14163;-26.142;27.992;2023-12-28T07:08:44;4.50;;;4.10;;
26478;SDS011;14163;-26.142;27.992;2023-12-28T07:11:16;4.30;;;3.87;;
26478;SDS011;14163;-26.142;27.992;2023-12-28T07:13:46;5.20;;;4.80;;
26478;SDS011;14163;-26.142;27.992;2023-12-28T07:16:16;4.17;;;3.87;;
26478;SDS011;14163;-26.142;27.992;2023-12-28T07:18:46;3.60;;;3.40;;
26478;SDS011;14163;-26.142;27.992;2023-12-28T07:21:16;3.90;;;3.60;;
26478;SDS011;14163;-26.142;27.992;2023-12-28T07:23:48;4.50;;;4.10;;
26478;SDS011;14163;-26.142;27.992;2023-12-28T07:26:18;4.90;;;4.43;;
26478;SDS011;14163;-26.142;27.992;2023-12-28T07:28:48;4.70;;;4.30;;
26478;SDS011;14163;-26.142;27.992;2023-12-28T07:31:24;5.93;;;5.43;;
26478;SDS011;14163;-26.142;27.992;2023-12-28T07:33:54;5.83;;;5.23;;
26478;SDS011;14163;-26.142;27.992;2023-12-28T07:36:23;5.80;;;5.27;;
26478;SDS011;14163;-26.142;27.992;2023-12-28T07:38:55;4.73;;;4.27;;
26478;SDS011;14163;-26.142;27.992;2023-12-28T07:41:25;6.00;;;5.40;;
26478;SDS011;14163;-26.142;27.992;2023-12-28T07:43:55;5.80;;;5.20;;
26478;SDS011;14163;-26.142;27.992;2023-12-28T07:46:25;6.13;;;5.57;;
26478;SDS011;14163;-26.142;27.992;2023-12-28T07:48:54;6.27;;;5.67;;
26478;SDS011;14163;-26.142;27.992;2023-12-28T07:51:24;6.20;;;5.60;;
26478;SDS011;14163;-26.142;27.992;2023-12-28T07:53:57;7.47;;;6.77;;
26478;SDS011;14163;-26.142;27.992;2023-12-28T07:56:26;6.73;;;5.70;;
26478;SDS011;14163;-26.142;27.992;2023-12-28T07:58:55;5.23;;;4.80;;
26478;SDS011;14163;-26.142;27.992;2023-12-28T08:01:25;5.20;;;4.80;;
26478;SDS011;14163;-26.142;27.992;2023-12-28T08:03:54;7.00;;;5.30;;
26478;SDS011;14163;-26.142;27.992;2023-12-28T08:06:24;5.40;;;5.00;;
26478;SDS011;14163;-26.142;27.992;2023-12-28T08:08:53;5.97;;;5.40;;
26478;SDS011;14163;-26.142;27.992;2023-12-28T08:11:24;5.70;;;5.20;;
26478;SDS011;14163;-26.142;27.992;2023-12-28T08:13:55;6.10;;;5.50;;
26478;SDS011;14163;-26.142;27.992;2023-12-28T08:16:24;6.17;;;5.67;;
26478;SDS011;14163;-26.142;27.992;2023-12-28T08:18:53;6.57;;;5.87;;
26478;SDS011;14163;-26.142;27.992;2023-12-28T08:21:23;5.17;;;4.77;;
26478;SDS011;14163;-26.142;27.992;2023-12-28T08:23:53;5.70;;;5.20;;
26478;SDS011;14163;-26.142;27.992;2023-12-28T08:26:25;4.53;;;4.23;;
26478;SDS011;14163;-26.142;27.992;2023-12-28T08:28:54;5.23;;;4.80;;
26478;SDS011;14163;-26.142;27.992;2023-12-28T08:31:23;5.80;;;5.30;;
26478;SDS011;14163;-26.142;27.992;2023-12-28T08:33:54;6.43;;;5.87;;
26478;SDS011;14163;-26.142;27.992;2023-12-28T08:36:24;6.33;;;5.83;;
26478;SDS011;14163;-26.142;27.992;2023-12-28T08:38:54;10.40;;;9.50;;
26478;SDS011;14163;-26.142;27.992;2023-12-28T08:41:26;6.47;;;5.97;;
26478;SDS011;14163;-26.142;27.992;2023-12-28T08:43:56;6.80;;;6.30;;
26478;SDS011;14163;-26.142;27.992;2023-12-28T08:46:26;6.70;;;6.20;;
26478;SDS011;14163;-26.142;27.992;2023-12-28T08:48:56;6.70;;;6.20;;
26478;SDS011;14163;-26.142;27.992;2023-12-28T08:51:26;6.00;;;5.60;;
26478;SDS011;14163;-26.142;27.992;2023-12-28T08:53:56;6.30;;;5.80;;
26478;SDS011;14163;-26.142;27.992;2023-12-28T08:56:27;9.90;;;9.10;;
26478;SDS011;14163;-26.142;27.992;2023-12-28T08:58:57;8.00;;;7.30;;
26478;SDS011;14163;-26.142;27.992;2023-12-28T09:01:27;6.97;;;6.47;;
26478;SDS011;14163;-26.142;27.992;2023-12-28T09:03:57;7.13;;;6.53;;
26478;SDS011;14163;-26.142;27.992;2023-12-28T09:06:27;8.30;;;7.50;;
26478;SDS011;14163;-26.142;27.992;2023-12-28T09:08:56;7.10;;;6.40;;
26478;SDS011;14163;-26.142;27.992;2023-12-28T09:11:28;7.90;;;7.20;;
26478;SDS011;14163;-26.142;27.992;2023-12-28T09:13:57;6.17;;;5.77;;
26478;SDS011;14163;-26.142;27.992;2023-12-28T09:16:27;6.80;;;6.20;;
26478;SDS011;14163;-26.142;27.992;2023-12-28T09:18:56;6.47;;;5.97;;
26478;SDS011;14163;-26.142;27.992;2023-12-28T09:21:25;8.37;;;7.77;;
26478;SDS011;14163;-26.142;27.992;2023-12-28T09:23:54;9.40;;;7.57;;
26478;SDS011;14163;-26.142;27.992;2023-12-28T09:26:23;7.60;;;7.00;;
26478;SDS011;14163;-26.142;27.992;2023-12-28T09:28:54;7.53;;;7.00;;
26478;SDS011;14163;-26.142;27.992;2023-12-28T09:31:23;8.73;;;7.23;;
26478;SDS011;14163;-26.142;27.992;2023-12-28T09:33:52;7.80;;;7.10;;
26478;SDS011;14163;-26.142;27.992;2023-12-28T09:36:22;7.80;;;7.20;;
26478;SDS011;14163;-26.142;27.992;2023-12-28T09:38:51;7.60;;;7.00;;
26478;SDS011;14163;-26.142;27.992;2023-12-28T09:41:21;8.20;;;5.90;;
26478;SDS011;14163;-26.142;27.992;2023-12-28T09:43:57;5.83;;;5.33;;
26478;SDS011;14163;-26.142;27.992;2023-12-28T09:46:30;5.27;;;4.80;;
26478;SDS011;14163;-26.142;27.992;2023-12-28T09:49:01;4.60;;;4.40;;
26478;SDS011;14163;-26.142;27.992;2023-12-28T09:51:31;5.10;;;4.80;;
26478;SDS011;14163;-26.142;27.992;2023-12-28T09:54:00;4.27;;;3.97;;
26478;SDS011;14163;-26.142;27.992;2023-12-28T09:56:31;4.90;;;4.50;;
26478;SDS011;14163;-26.142;27.992;2023-12-28T09:59:03;4.83;;;4.50;;
26478;SDS011;14163;-26.142;27.992;2023-12-28T10:01:34;4.30;;;4.10;;
26478;SDS011;14163;-26.142;27.992;2023-12-28T10:04:03;3.93;;;3.63;;
26478;SDS011;14163;-26.142;27.992;2023-12-28T10:06:34;3.90;;;3.70;;
26478;SDS011;14163;-26.142;27.992;2023-12-28T10:09:05;4.00;;;3.80;;
26478;SDS011;14163;-26.142;27.992;2023-12-28T10:11:36;4.10;;;3.90;;
26478;SDS011;14163;-26.142;27.992;2023-12-28T10:14:09;4.87;;;4.30;;
26478;SDS011;14163;-26.142;27.992;2023-12-28T10:16:40;4.50;;;4.10;;
26478;SDS011;14163;-26.142;27.992;2023-12-28T10:19:10;4.57;;;4.30;;
26478;SDS011;14163;-26.142;27.992;2023-12-28T10:21:40;4.80;;;4.40;;
26478;SDS011;14163;-26.142;27.992;2023-12-28T10:24:11;5.87;;;5.47;;
26478;SDS011;14163;-26.142;27.992;2023-12-28T10:26:39;5.20;;;4.90;;
26478;SDS011;14163;-26.142;27.992;2023-12-28T10:29:11;5.10;;;4.80;;
26478;SDS011;14163;-26.142;27.992;2023-12-28T10:31:41;4.93;;;4.53;;
26478;SDS011;14163;-26.142;27.992;2023-12-28T10:34:15;5.60;;;5.20;;
26478;SDS011;14163;-26.142;27.992;2023-12-28T10:36:44;5.70;;;5.30;;
26478;SDS011;14163;-26.142;27.992;2023-12-28T10:39:16;5.40;;;5.00;;
26478;SDS011;14163;-26.142;27.992;2023-12-28T10:41:49;5.40;;;5.10;;
26478;SDS011;14163;-26.142;27.992;2023-12-28T10:44:21;6.03;;;5.63;;
26478;SDS011;14163;-26.142;27.992;2023-12-28T10:46:55;5.33;;;4.83;;
26478;SDS011;14163;-26.142;27.992;2023-12-28T10:49:29;5.07;;;4.77;;
26478;SDS011;14163;-26.142;27.992;2023-12-28T10:52:01;4.97;;;4.50;;
26478;SDS011;14163;-26.142;27.992;2023-12-28T10:54:37;5.20;;;4.80;;
26478;SDS011;14163;-26.142;27.992;2023-12-28T10:57:14;4.27;;;4.03;;
26478;SDS011;14163;-26.142;27.992;2023-12-28T10:59:56;4.00;;;3.80;;
26478;SDS011;14163;-26.142;27.992;2023-12-28T11:02:34;4.00;;;3.70;;
26478;SDS011;14163;-26.142;27.992;2023-12-28T11:05:07;4.10;;;3.80;;
26478;SDS011;14163;-26.142;27.992;2023-12-28T11:07:37;3.80;;;3.40;;
26478;SDS011;14163;-26.142;27.992;2023-12-28T11:10:09;3.87;;;3.10;;
26478;SDS011;14163;-26.142;27.992;2023-12-28T11:12:42;3.43;;;3.13;;
26478;SDS011;14163;-26.142;27.992;2023-12-28T11:15:14;3.40;;;3.20;;
26478;SDS011;14163;-26.142;27.992;2023-12-28T11:17:45;3.50;;;3.20;;
26478;SDS011;14163;-26.142;27.992;2023-12-28T11:20:14;2.87;;;2.67;;
26478;SDS011;14163;-26.142;27.992;2023-12-28T11:22:44;3.20;;;3.00;;
26478;SDS011;14163;-26.142;27.992;2023-12-28T11:25:15;2.97;;;2.77;;
26478;SDS011;14163;-26.142;27.992;2023-12-28T11:27:45;2.83;;;2.70;;
26478;SDS011;14163;-26.142;27.992;2023-12-28T11:30:17;3.50;;;3.30;;
26478;SDS011;14163;-26.142;27.992;2023-12-28T11:32:46;4.67;;;2.70;;
26478;SDS011;14163;-26.142;27.992;2023-12-28T11:35:16;2.83;;;2.60;;
26478;SDS011;14163;-26.142;27.992;2023-12-28T11:37:46;3.53;;;3.33;;
26478;SDS011;14163;-26.142;27.992;2023-12-28T11:40:18;5.73;;;5.30;;
26478;SDS011;14163;-26.142;27.992;2023-12-28T11:42:49;4.50;;;4.10;;
26478;SDS011;14163;-26.142;27.992;2023-12-28T11:45:21;3.30;;;2.60;;
26478;SDS011;14163;-26.142;27.992;2023-12-28T11:48:00;3.70;;;2.20;;
26478;SDS011;14163;-26.142;27.992;2023-12-28T11:50:30;2.83;;;2.63;;
26478;SDS011;14163;-26.142;27.992;2023-12-28T11:52:59;2.40;;;2.30;;
26478;SDS011;14163;-26.142;27.992;2023-12-28T11:55:29;2.90;;;2.80;;
26478;SDS011;14163;-26.142;27.992;2023-12-28T11:57:58;1.77;;;1.67;;
26478;SDS011;14163;-26.142;27.992;2023-12-28T12:00:30;1.90;;;1.80;;
26478;SDS011;14163;-26.142;27.992;2023-12-28T12:02:59;2.17;;;1.80;;
26478;SDS011;14163;-26.142;27.992;2023-12-28T12:05:28;1.93;;;1.43;;
26478;SDS011;14163;-26.142;27.992;2023-12-28T12:07:58;1.20;;;1.20;;
26478;SDS011;14163;-26.142;27.992;2023-12-28T12:10:29;1.87;;;1.77;;
26478;SDS011;14163;-26.142;27.992;2023-12-28T12:12:58;1.73;;;1.63;;
26478;SDS011;14163;-26.142;27.992;2023-12-28T12:15:31;1.30;;;1.30;;
26478;SDS011;14163;-26.142;27.992;2023-12-28T12:18:01;1.50;;;1.50;;
26478;SDS011;14163;-26.142;27.992;2023-12-28T12:20:30;49.60;;;36.07;;
26478;SDS011;14163;-26.142;27.992;2023-12-28T12:22:59;63.93;;;47.20;;
26478;SDS011;14163;-26.142;27.992;2023-12-28T12:25:29;27.67;;;22.90;;
26478;SDS011;14163;-26.142;27.992;2023-12-28T12:27:58;1.83;;;1.73;;
26478;SDS011;14163;-26.142;27.992;2023-12-28T12:30:32;1.80;;;1.70;;
26478;SDS011;14163;-26.142;27.992;2023-12-28T12:33:02;2.50;;;2.30;;
26478;SDS011;14163;-26.142;27.992;2023-12-28T12:35:32;2.37;;;2.27;;
26478;SDS011;14163;-26.142;27.992;2023-12-28T12:38:01;1.90;;;1.80;;
26478;SDS011;14163;-26.142;27.992;2023-12-28T12:40:32;2.00;;;1.80;;
26478;SDS011;14163;-26.142;27.992;2023-12-28T12:43:01;2.70;;;2.60;;
26478;SDS011;14163;-26.142;27.992;2023-12-28T12:45:32;3.67;;;3.40;;
26478;SDS011;14163;-26.142;27.992;2023-12-28T12:48:02;3.80;;;3.60;;
26478;SDS011;14163;-26.142;27.992;2023-12-28T12:50:31;4.30;;;4.10;;
26478;SDS011;14163;-26.142;27.992;2023-12-28T12:53:01;10.03;;;9.17;;
26478;SDS011;14163;-26.142;27.992;2023-12-28T12:55:32;5.10;;;4.60;;
26478;SDS011;14163;-26.142;27.992;2023-12-28T12:58:01;7.53;;;6.93;;
26478;SDS011;14163;-26.142;27.992;2023-12-28T13:00:33;5.80;;;5.40;;
26478;SDS011;14163;-26.142;27.992;2023-12-28T13:03:03;4.50;;;4.30;;
26478;SDS011;14163;-26.142;27.992;2023-12-28T13:05:37;4.53;;;4.33;;
26478;SDS011;14163;-26.142;27.992;2023-12-28T13:08:09;4.33;;;4.13;;
26478;SDS011;14163;-26.142;27.992;2023-12-28T13:10:38;4.53;;;4.33;;
26478;SDS011;14163;-26.142;27.992;2023-12-28T13:13:08;4.23;;;4.00;;
26478;SDS011;14163;-26.142;27.992;2023-12-28T13:15:40;5.23;;;4.90;;
26478;SDS011;14163;-26.142;27.992;2023-12-28T13:18:09;4.70;;;4.40;;
26478;SDS011;14163;-26.142;27.992;2023-12-28T13:20:38;4.80;;;4.57;;
26478;SDS011;14163;-26.142;27.992;2023-12-28T13:23:08;4.10;;;3.90;;
26478;SDS011;14163;-26.142;27.992;2023-12-28T13:25:38;4.40;;;4.20;;
26478;SDS011;14163;-26.142;27.992;2023-12-28T13:28:08;4.30;;;4.10;;
26478;SDS011;14163;-26.142;27.992;2023-12-28T13:30:40;3.97;;;3.70;;
26478;SDS011;14163;-26.142;27.992;2023-12-28T13:33:09;4.93;;;4.53;;
26478;SDS011;14163;-26.142;27.992;2023-12-28T13:35:39;4.13;;;3.87;;
26478;SDS011;14163;-26.142;27.992;2023-12-28T13:38:08;5.17;;;4.97;;
26478;SDS011;14163;-26.142;27.992;2023-12-28T13:40:37;35.53;;;27.10;;
26478;SDS011;14163;-26.142;27.992;2023-12-28T13:43:07;5.70;;;5.00;;
26478;SDS011;14163;-26.142;27.992;2023-12-28T13:45:36;3.50;;;3.30;;
26478;SDS011;14163;-26.142;27.992;2023-12-28T13:48:08;3.80;;;3.60;;
26478;SDS011;14163;-26.142;27.992;2023-12-28T13:50:38;3.77;;;3.50;;
26478;SDS011;14163;-26.142;27.992;2023-12-28T13:53:09;4.60;;;3.90;;
26478;SDS011;14163;-26.142;27.992;2023-12-28T13:55:39;3.50;;;3.30;;
26478;SDS011;14163;-26.142;27.992;2023-12-28T13:58:09;4.50;;;4.20;;
26478;SDS011;14163;-26.142;27.992;2023-12-28T14:00:41;3.73;;;3.43;;
26478;SDS011;14163;-26.142;27.992;2023-12-28T14:03:10;3.50;;;3.20;;
26478;SDS011;14163;-26.142;27.992;2023-12-28T14:05:40;3.47;;;3.27;;
26478;SDS011;14163;-26.142;27.992;2023-12-28T14:08:09;2.70;;;2.60;;
26478;SDS011;14163;-26.142;27.992;2023-12-28T14:10:40;3.03;;;2.93;;
26478;SDS011;14163;-26.142;27.992;2023-12-28T14:13:09;2.70;;;2.60;;
26478;SDS011;14163;-26.142;27.992;2023-12-28T14:15:42;2.10;;;2.00;;
26478;SDS011;14163;-26.142;27.992;2023-12-28T14:18:12;1.63;;;1.53;;
26478;SDS011;14163;-26.142;27.992;2023-12-28T14:20:41;2.30;;;1.70;;
26478;SDS011;14163;-26.142;27.992;2023-12-28T14:23:11;1.70;;;1.60;;
26478;SDS011;14163;-26.142;27.992;2023-12-28T14:25:42;1.60;;;1.50;;
26478;SDS011;14163;-26.142;27.992;2023-12-28T14:28:17;2.00;;;1.80;;
26478;SDS011;14163;-26.142;27.992;2023-12-28T14:30:49;1.90;;;1.80;;
26478;SDS011;14163;-26.142;27.992;2023-12-28T14:33:20;2.13;;;2.03;;
26478;SDS011;14163;-26.142;27.992;2023-12-28T14:35:50;2.27;;;1.90;;